Terminal Aerodrome Forecast
Issued by NWS Charleston, WV

Current Version | Previous Version | Graphics & Text | Print | Product List | Glossary Off
Versions: 1 2 3 4 5 6 7 8 9 10 11 12 13 14 15 16 17 18 19 20 21 22 23 24 25 26 27

170
FTUS41 KRLX 161138
TAFCRW
TAF
KCRW 161138Z 1612/1712 00000KT 4SM BR BKN004 OVC015
     FM161500 VRB03KT P6SM OVC015
     FM161900 VRB03KT P6SM OVC060
     FM170700 15004KT 5SM -SHRA OVC060=

USA.gov is the U.S. government's official web portal to all federal, state and local government web resources and services.